sensor_id;sensor_type;location;lat;lon;timestamp;temperature;humidity
69281;SHT31;56392;51.082;17.080;2023-07-09T00:04:03;19.43;67.17
69281;SHT31;56392;51.082;17.080;2023-07-09T00:09:28;19.33;67.18
69281;SHT31;56392;51.082;17.080;2023-07-09T00:14:51;19.16;67.24
69281;SHT31;56392;51.082;17.080;2023-07-09T00:20:18;19.02;67.44
69281;SHT31;56392;51.082;17.080;2023-07-09T00:25:42;18.85;67.91
69281;SHT31;56392;51.082;17.080;2023-07-09T00:31:10;18.85;68.39
69281;SHT31;56392;51.082;17.080;2023-07-09T00:36:35;18.86;68.83
69281;SHT31;56392;51.082;17.080;2023-07-09T00:41:59;18.82;68.88
69281;SHT31;56392;51.082;17.080;2023-07-09T00:47:26;18.73;69.45
69281;SHT31;56392;51.082;17.080;2023-07-09T00:52:51;18.71;69.72
69281;SHT31;56392;51.082;17.080;2023-07-09T00:58:18;18.62;70.00
69281;SHT31;56392;51.082;17.080;2023-07-09T01:03:45;18.51;70.55
69281;SHT31;56392;51.082;17.080;2023-07-09T01:09:09;18.51;70.86
69281;SHT31;56392;51.082;17.080;2023-07-09T01:14:34;18.49;70.97
69281;SHT31;56392;51.082;17.080;2023-07-09T01:19:57;18.47;71.13
69281;SHT31;56392;51.082;17.080;2023-07-09T01:25:22;18.38;71.48
69281;SHT31;56392;51.082;17.080;2023-07-09T01:30:45;18.40;71.66
69281;SHT31;56392;51.082;17.080;2023-07-09T01:36:18;18.31;72.10
69281;SHT31;56392;51.082;17.080;2023-07-09T01:41:46;18.32;72.15
69281;SHT31;56392;51.082;17.080;2023-07-09T01:47:10;18.44;71.39
69281;SHT31;56392;51.082;17.080;2023-07-09T01:52:35;18.40;71.50
69281;SHT31;56392;51.082;17.080;2023-07-09T01:58:00;18.31;71.78
69281;SHT31;56392;51.082;17.080;2023-07-09T02:03:28;18.23;72.29
69281;SHT31;56392;51.082;17.080;2023-07-09T02:08:51;18.17;72.70
69281;SHT31;56392;51.082;17.080;2023-07-09T02:14:15;18.20;72.20
69281;SHT31;56392;51.082;17.080;2023-07-09T02:19:39;18.11;72.39
69281;SHT31;56392;51.082;17.080;2023-07-09T02:25:02;17.97;72.62
69281;SHT31;56392;51.082;17.080;2023-07-09T02:30:29;17.86;72.91
69281;SHT31;56392;51.082;17.080;2023-07-09T02:35:52;17.70;73.17
69281;SHT31;56392;51.082;17.080;2023-07-09T02:41:15;17.57;73.57
69281;SHT31;56392;51.082;17.080;2023-07-09T02:46:40;17.54;73.65
69281;SHT31;56392;51.082;17.080;2023-07-09T02:52:04;17.57;73.88
69281;SHT31;56392;51.082;17.080;2023-07-09T02:57:27;17.52;73.71
69281;SHT31;56392;51.082;17.080;2023-07-09T03:02:51;17.53;73.82
69281;SHT31;56392;51.082;17.080;2023-07-09T03:08:15;17.67;73.41
69281;SHT31;56392;51.082;17.080;2023-07-09T03:13:38;17.77;73.51
69281;SHT31;56392;51.082;17.080;2023-07-09T03:19:03;18.13;72.27
69281;SHT31;56392;51.082;17.080;2023-07-09T03:24:26;18.24;71.81
69281;SHT31;56392;51.082;17.080;2023-07-09T03:29:49;18.35;71.70
69281;SHT31;56392;51.082;17.080;2023-07-09T03:35:14;18.32;72.20
69281;SHT31;56392;51.082;17.080;2023-07-09T03:40:38;18.41;72.40
69281;SHT31;56392;51.082;17.080;2023-07-09T03:46:09;18.45;72.47
69281;SHT31;56392;51.082;17.080;2023-07-09T03:51:34;18.45;72.42
69281;SHT31;56392;51.082;17.080;2023-07-09T03:56:57;18.61;72.05
69281;SHT31;56392;51.082;17.080;2023-07-09T04:02:20;18.65;71.82
69281;SHT31;56392;51.082;17.080;2023-07-09T04:07:45;18.73;71.99
69281;SHT31;56392;51.082;17.080;2023-07-09T04:13:08;19.13;70.90
69281;SHT31;56392;51.082;17.080;2023-07-09T04:18:31;19.28;70.77
69281;SHT31;56392;51.082;17.080;2023-07-09T04:23:55;19.34;71.03
69281;SHT31;56392;51.082;17.080;2023-07-09T04:29:18;19.70;69.84
69281;SHT31;56392;51.082;17.080;2023-07-09T04:34:41;20.04;68.20
69281;SHT31;56392;51.082;17.080;2023-07-09T04:40:08;20.26;67.30
69281;SHT31;56392;51.082;17.080;2023-07-09T04:45:33;20.56;65.45
69281;SHT31;56392;51.082;17.080;2023-07-09T04:50:57;20.80;65.00
69281;SHT31;56392;51.082;17.080;2023-07-09T04:56:22;21.08;63.91
69281;SHT31;56392;51.082;17.080;2023-07-09T05:01:46;21.39;63.18
69281;SHT31;56392;51.082;17.080;2023-07-09T05:07:09;21.81;61.45
69281;SHT31;56392;51.082;17.080;2023-07-09T05:12:47;22.24;60.41
69281;SHT31;56392;51.082;17.080;2023-07-09T05:18:13;22.79;59.26
69281;SHT31;56392;51.082;17.080;2023-07-09T05:23:36;23.33;58.65
69281;SHT31;56392;51.082;17.080;2023-07-09T05:29:02;23.93;56.85
69281;SHT31;56392;51.082;17.080;2023-07-09T05:34:25;24.90;55.47
69281;SHT31;56392;51.082;17.080;2023-07-09T05:39:48;26.06;52.86
69281;SHT31;56392;51.082;17.080;2023-07-09T05:45:13;26.33;52.15
69281;SHT31;56392;51.082;17.080;2023-07-09T05:50:36;26.80;52.24
69281;SHT31;56392;51.082;17.080;2023-07-09T05:55:59;27.47;51.48
69281;SHT31;56392;51.082;17.080;2023-07-09T06:01:24;28.43;48.64
69281;SHT31;56392;51.082;17.080;2023-07-09T06:06:47;29.65;46.33
69281;SHT31;56392;51.082;17.080;2023-07-09T06:12:11;32.31;40.78
69281;SHT31;56392;51.082;17.080;2023-07-09T06:17:36;36.98;33.31
69281;SHT31;56392;51.082;17.080;2023-07-09T06:22:59;39.94;28.49
69281;SHT31;56392;51.082;17.080;2023-07-09T06:28:24;41.78;26.24
69281;SHT31;56392;51.082;17.080;2023-07-09T06:33:49;40.58;27.48
69281;SHT31;56392;51.082;17.080;2023-07-09T06:39:12;39.16;29.21
69281;SHT31;56392;51.082;17.080;2023-07-09T06:44:35;39.66;27.92
69281;SHT31;56392;51.082;17.080;2023-07-09T06:49:59;42.69;24.63
69281;SHT31;56392;51.082;17.080;2023-07-09T06:55:23;45.06;21.82
69281;SHT31;56392;51.082;17.080;2023-07-09T07:00:48;47.13;20.10
69281;SHT31;56392;51.082;17.080;2023-07-09T07:06:12;48.91;18.65
69281;SHT31;56392;51.082;17.080;2023-07-09T07:11:37;50.23;17.68
69281;SHT31;56392;51.082;17.080;2023-07-09T07:17:00;49.89;17.50
69281;SHT31;56392;51.082;17.080;2023-07-09T07:22:25;50.89;17.05
69281;SHT31;56392;51.082;17.080;2023-07-09T07:27:49;51.38;16.57
69281;SHT31;56392;51.082;17.080;2023-07-09T07:33:14;51.83;16.32
69281;SHT31;56392;51.082;17.080;2023-07-09T07:38:38;51.34;16.44
69281;SHT31;56392;51.082;17.080;2023-07-09T07:44:01;49.52;17.68
69281;SHT31;56392;51.082;17.080;2023-07-09T07:49:25;46.62;19.93
69281;SHT31;56392;51.082;17.080;2023-07-09T07:54:49;45.68;20.82
69281;SHT31;56392;51.082;17.080;2023-07-09T08:00:15;45.98;20.50
69281;SHT31;56392;51.082;17.080;2023-07-09T08:05:38;48.05;18.61
69281;SHT31;56392;51.082;17.080;2023-07-09T08:11:04;47.48;19.05
69281;SHT31;56392;51.082;17.080;2023-07-09T08:16:29;47.24;20.00
69281;SHT31;56392;51.082;17.080;2023-07-09T08:21:52;46.60;19.88
69281;SHT31;56392;51.082;17.080;2023-07-09T08:27:17;46.19;20.21
69281;SHT31;56392;51.082;17.080;2023-07-09T08:32:40;46.46;20.15
69281;SHT31;56392;51.082;17.080;2023-07-09T08:38:03;47.15;19.81
69281;SHT31;56392;51.082;17.080;2023-07-09T08:43:33;48.47;18.80
69281;SHT31;56392;51.082;17.080;2023-07-09T08:48:59;49.65;17.03
69281;SHT31;56392;51.082;17.080;2023-07-09T08:54:27;50.82;15.27
69281;SHT31;56392;51.082;17.080;2023-07-09T08:59:59;51.45;15.35
69281;SHT31;56392;51.082;17.080;2023-07-09T09:05:23;50.67;16.03
69281;SHT31;56392;51.082;17.080;2023-07-09T09:10:48;49.47;16.10
69281;SHT31;56392;51.082;17.080;2023-07-09T09:16:21;46.53;18.38
69281;SHT31;56392;51.082;17.080;2023-07-09T09:21:46;44.84;20.24
69281;SHT31;56392;51.082;17.080;2023-07-09T09:27:11;44.21;20.80
69281;SHT31;56392;51.082;17.080;2023-07-09T09:32:42;44.26;20.51
69281;SHT31;56392;51.082;17.080;2023-07-09T09:38:11;43.86;20.17
69281;SHT31;56392;51.082;17.080;2023-07-09T09:43:34;45.85;19.30
69281;SHT31;56392;51.082;17.080;2023-07-09T09:49:01;50.02;15.39
69281;SHT31;56392;51.082;17.080;2023-07-09T09:54:27;52.64;13.87
69281;SHT31;56392;51.082;17.080;2023-07-09T09:59:54;53.46;13.36
69281;SHT31;56392;51.082;17.080;2023-07-09T10:05:21;53.75;12.72
69281;SHT31;56392;51.082;17.080;2023-07-09T10:10:51;53.41;12.30
69281;SHT31;56392;51.082;17.080;2023-07-09T10:16:19;53.25;12.64
69281;SHT31;56392;51.082;17.080;2023-07-09T10:21:48;52.66;12.92
69281;SHT31;56392;51.082;17.080;2023-07-09T10:27:18;53.45;12.41
69281;SHT31;56392;51.082;17.080;2023-07-09T10:32:54;51.98;12.22
69281;SHT31;56392;51.082;17.080;2023-07-09T10:38:31;47.98;13.94
69281;SHT31;56392;51.082;17.080;2023-07-09T10:43:59;43.27;17.38
69281;SHT31;56392;51.082;17.080;2023-07-09T10:49:27;40.91;19.45
69281;SHT31;56392;51.082;17.080;2023-07-09T10:55:00;40.00;20.58
69281;SHT31;56392;51.082;17.080;2023-07-09T11:00:34;39.36;20.91
69281;SHT31;56392;51.082;17.080;2023-07-09T11:05:58;39.09;20.89
69281;SHT31;56392;51.082;17.080;2023-07-09T11:11:30;38.65;22.03
69281;SHT31;56392;51.082;17.080;2023-07-09T11:16:56;38.28;21.69
69281;SHT31;56392;51.082;17.080;2023-07-09T11:22:22;37.32;22.85
69281;SHT31;56392;51.082;17.080;2023-07-09T11:27:49;37.07;23.64
69281;SHT31;56392;51.082;17.080;2023-07-09T11:33:17;36.99;23.69
69281;SHT31;56392;51.082;17.080;2023-07-09T11:38:42;36.53;23.32
69281;SHT31;56392;51.082;17.080;2023-07-09T11:44:12;36.36;23.73
69281;SHT31;56392;51.082;17.080;2023-07-09T11:49:45;36.30;23.32
69281;SHT31;56392;51.082;17.080;2023-07-09T11:55:20;36.33;23.44
69281;SHT31;56392;51.082;17.080;2023-07-09T12:00:49;36.15;24.34
69281;SHT31;56392;51.082;17.080;2023-07-09T12:06:18;35.71;24.83
69281;SHT31;56392;51.082;17.080;2023-07-09T12:11:45;35.65;24.76
69281;SHT31;56392;51.082;17.080;2023-07-09T12:17:10;35.45;24.84
69281;SHT31;56392;51.082;17.080;2023-07-09T12:22:33;35.37;25.35
69281;SHT31;56392;51.082;17.080;2023-07-09T12:27:59;35.31;25.09
69281;SHT31;56392;51.082;17.080;2023-07-09T12:33:25;34.88;25.92
69281;SHT31;56392;51.082;17.080;2023-07-09T12:38:50;34.57;25.67
69281;SHT31;56392;51.082;17.080;2023-07-09T12:44:17;34.23;25.54
69281;SHT31;56392;51.082;17.080;2023-07-09T12:49:44;34.20;25.55
69281;SHT31;56392;51.082;17.080;2023-07-09T12:55:20;34.10;24.87
69281;SHT31;56392;51.082;17.080;2023-07-09T13:00:47;34.23;25.26
69281;SHT31;56392;51.082;17.080;2023-07-09T13:06:27;34.26;24.54
69281;SHT31;56392;51.082;17.080;2023-07-09T13:11:51;34.31;24.84
69281;SHT31;56392;51.082;17.080;2023-07-09T13:17:16;34.15;25.01
69281;SHT31;56392;51.082;17.080;2023-07-09T13:22:41;33.92;25.69
69281;SHT31;56392;51.082;17.080;2023-07-09T13:28:04;33.99;25.74
69281;SHT31;56392;51.082;17.080;2023-07-09T13:33:29;34.08;25.93
69281;SHT31;56392;51.082;17.080;2023-07-09T13:38:54;34.19;25.71
69281;SHT31;56392;51.082;17.080;2023-07-09T13:44:21;33.97;25.99
69281;SHT31;56392;51.082;17.080;2023-07-09T13:49:45;33.77;28.40
69281;SHT31;56392;51.082;17.080;2023-07-09T13:55:16;33.69;27.28
69281;SHT31;56392;51.082;17.080;2023-07-09T14:00:40;33.34;26.82
69281;SHT31;56392;51.082;17.080;2023-07-09T14:06:04;33.23;28.23
69281;SHT31;56392;51.082;17.080;2023-07-09T14:11:30;33.31;26.44
69281;SHT31;56392;51.082;17.080;2023-07-09T14:16:53;33.21;25.39
69281;SHT31;56392;51.082;17.080;2023-07-09T14:22:23;33.07;25.84
69281;SHT31;56392;51.082;17.080;2023-07-09T14:27:50;32.95;25.99
69281;SHT31;56392;51.082;17.080;2023-07-09T14:33:15;32.82;26.39
69281;SHT31;56392;51.082;17.080;2023-07-09T14:38:39;32.84;27.92
69281;SHT31;56392;51.082;17.080;2023-07-09T14:44:19;32.70;26.79
69281;SHT31;56392;51.082;17.080;2023-07-09T14:49:43;32.49;26.81
69281;SHT31;56392;51.082;17.080;2023-07-09T14:55:09;32.32;26.62
69281;SHT31;56392;51.082;17.080;2023-07-09T15:00:37;32.05;25.86
69281;SHT31;56392;51.082;17.080;2023-07-09T15:06:02;31.99;26.50
69281;SHT31;56392;51.082;17.080;2023-07-09T15:11:25;31.92;26.57
69281;SHT31;56392;51.082;17.080;2023-07-09T15:16:50;31.81;27.42
69281;SHT31;56392;51.082;17.080;2023-07-09T15:22:19;31.78;27.64
69281;SHT31;56392;51.082;17.080;2023-07-09T15:27:47;31.74;27.27
69281;SHT31;56392;51.082;17.080;2023-07-09T15:33:16;31.71;27.16
69281;SHT31;56392;51.082;17.080;2023-07-09T15:38:41;31.63;26.55
69281;SHT31;56392;51.082;17.080;2023-07-09T15:44:04;31.53;27.09
69281;SHT31;56392;51.082;17.080;2023-07-09T15:49:29;31.53;27.89
69281;SHT31;56392;51.082;17.080;2023-07-09T15:54:53;31.33;25.79
69281;SHT31;56392;51.082;17.080;2023-07-09T16:00:18;31.22;25.87
69281;SHT31;56392;51.082;17.080;2023-07-09T16:05:43;31.22;26.42
69281;SHT31;56392;51.082;17.080;2023-07-09T16:11:14;31.12;28.17
69281;SHT31;56392;51.082;17.080;2023-07-09T16:16:37;31.06;28.82
69281;SHT31;56392;51.082;17.080;2023-07-09T16:22:04;31.00;27.87
69281;SHT31;56392;51.082;17.080;2023-07-09T16:27:28;30.86;28.53
69281;SHT31;56392;51.082;17.080;2023-07-09T16:32:51;30.76;28.41
69281;SHT31;56392;51.082;17.080;2023-07-09T16:38:18;30.75;28.82
69281;SHT31;56392;51.082;17.080;2023-07-09T16:43:41;30.62;29.32
69281;SHT31;56392;51.082;17.080;2023-07-09T16:49:13;30.57;31.03
69281;SHT31;56392;51.082;17.080;2023-07-09T16:54:44;30.34;31.94
69281;SHT31;56392;51.082;17.080;2023-07-09T17:00:25;30.20;29.39
69281;SHT31;56392;51.082;17.080;2023-07-09T17:05:48;30.01;31.05
69281;SHT31;56392;51.082;17.080;2023-07-09T17:11:13;29.72;32.93
69281;SHT31;56392;51.082;17.080;2023-07-09T17:16:36;29.46;35.88
69281;SHT31;56392;51.082;17.080;2023-07-09T17:21:59;29.35;35.08
69281;SHT31;56392;51.082;17.080;2023-07-09T17:27:23;29.25;35.75
69281;SHT31;56392;51.082;17.080;2023-07-09T17:32:47;29.11;36.11
69281;SHT31;56392;51.082;17.080;2023-07-09T17:38:14;28.97;37.26
69281;SHT31;56392;51.082;17.080;2023-07-09T17:43:39;28.70;39.66
69281;SHT31;56392;51.082;17.080;2023-07-09T17:49:08;28.39;40.88
69281;SHT31;56392;51.082;17.080;2023-07-09T17:54:31;28.24;41.41
69281;SHT31;56392;51.082;17.080;2023-07-09T17:59:56;27.98;42.05
69281;SHT31;56392;51.082;17.080;2023-07-09T18:05:25;27.86;42.09
69281;SHT31;56392;51.082;17.080;2023-07-09T18:10:49;27.68;41.81
69281;SHT31;56392;51.082;17.080;2023-07-09T18:16:14;27.39;43.38
69281;SHT31;56392;51.082;17.080;2023-07-09T18:21:39;27.21;44.21
69281;SHT31;56392;51.082;17.080;2023-07-09T18:27:03;27.00;44.34
69281;SHT31;56392;51.082;17.080;2023-07-09T18:32:28;26.83;43.55
69281;SHT31;56392;51.082;17.080;2023-07-09T18:37:52;26.67;43.74
69281;SHT31;56392;51.082;17.080;2023-07-09T18:43:18;26.57;44.55
69281;SHT31;56392;51.082;17.080;2023-07-09T18:48:42;26.33;46.05
69281;SHT31;56392;51.082;17.080;2023-07-09T18:54:15;26.12;47.15
69281;SHT31;56392;51.082;17.080;2023-07-09T18:59:40;25.94;46.92
69281;SHT31;56392;51.082;17.080;2023-07-09T19:05:11;25.74;47.72
69281;SHT31;56392;51.082;17.080;2023-07-09T19:10:35;25.48;47.70
69281;SHT31;56392;51.082;17.080;2023-07-09T19:15:58;25.33;48.57
69281;SHT31;56392;51.082;17.080;2023-07-09T19:21:26;25.20;48.24
69281;SHT31;56392;51.082;17.080;2023-07-09T19:26:50;24.99;49.24
69281;SHT31;56392;51.082;17.080;2023-07-09T19:32:18;24.83;51.08
69281;SHT31;56392;51.082;17.080;2023-07-09T19:37:48;24.61;52.98
69281;SHT31;56392;51.082;17.080;2023-07-09T19:43:12;24.41;53.57
69281;SHT31;56392;51.082;17.080;2023-07-09T19:48:37;24.22;53.91
69281;SHT31;56392;51.082;17.080;2023-07-09T19:54:13;24.13;54.01
69281;SHT31;56392;51.082;17.080;2023-07-09T19:59:36;23.98;53.22
69281;SHT31;56392;51.082;17.080;2023-07-09T20:05:00;23.87;52.86
69281;SHT31;56392;51.082;17.080;2023-07-09T20:10:28;23.77;52.67
69281;SHT31;56392;51.082;17.080;2023-07-09T20:15:54;23.63;52.73
69281;SHT31;56392;51.082;17.080;2023-07-09T20:21:19;23.41;53.12
69281;SHT31;56392;51.082;17.080;2023-07-09T20:26:44;23.29;53.80
69281;SHT31;56392;51.082;17.080;2023-07-09T20:32:11;23.16;54.64
69281;SHT31;56392;51.082;17.080;2023-07-09T20:37:38;23.01;54.44
69281;SHT31;56392;51.082;17.080;2023-07-09T20:43:02;22.88;54.24
69281;SHT31;56392;51.082;17.080;2023-07-09T20:48:25;22.74;53.92
69281;SHT31;56392;51.082;17.080;2023-07-09T20:53:48;22.65;54.46
69281;SHT31;56392;51.082;17.080;2023-07-09T20:59:14;22.60;55.90
69281;SHT31;56392;51.082;17.080;2023-07-09T21:04:38;22.50;56.87
69281;SHT31;56392;51.082;17.080;2023-07-09T21:10:01;22.40;57.76
69281;SHT31;56392;51.082;17.080;2023-07-09T21:15:30;22.29;58.29
69281;SHT31;56392;51.082;17.080;2023-07-09T21:20:53;22.37;58.50
69281;SHT31;56392;51.082;17.080;2023-07-09T21:26:16;22.39;58.33
69281;SHT31;56392;51.082;17.080;2023-07-09T21:31:43;22.46;57.03
69281;SHT31;56392;51.082;17.080;2023-07-09T21:37:13;22.36;57.28
69281;SHT31;56392;51.082;17.080;2023-07-09T21:42:38;22.20;57.94
69281;SHT31;56392;51.082;17.080;2023-07-09T21:48:04;22.09;58.77
69281;SHT31;56392;51.082;17.080;2023-07-09T21:53:28;21.88;59.80
69281;SHT31;56392;51.082;17.080;2023-07-09T21:58:51;21.72;60.52
69281;SHT31;56392;51.082;17.080;2023-07-09T22:04:29;21.56;61.10
69281;SHT31;56392;51.082;17.080;2023-07-09T22:09:54;21.51;61.16
69281;SHT31;56392;51.082;17.080;2023-07-09T22:15:20;21.41;61.18
69281;SHT31;56392;51.082;17.080;2023-07-09T22:20:45;21.35;61.31
69281;SHT31;56392;51.082;17.080;2023-07-09T22:26:08;21.21;61.00
69281;SHT31;56392;51.082;17.080;2023-07-09T22:31:32;21.07;61.41
69281;SHT31;56392;51.082;17.080;2023-07-09T22:36:56;21.00;61.21
69281;SHT31;56392;51.082;17.080;2023-07-09T22:42:19;20.91;60.98
69281;SHT31;56392;51.082;17.080;2023-07-09T22:47:43;20.87;60.84
69281;SHT31;56392;51.082;17.080;2023-07-09T22:53:12;20.73;61.75
69281;SHT31;56392;51.082;17.080;2023-07-09T22:58:36;20.64;62.18
69281;SHT31;56392;51.082;17.080;2023-07-09T23:04:00;20.62;62.47
69281;SHT31;56392;51.082;17.080;2023-07-09T23:09:24;20.59;63.93
69281;SHT31;56392;51.082;17.080;2023-07-09T23:14:48;20.57;64.65
69281;SHT31;56392;51.082;17.080;2023-07-09T23:20:12;20.66;63.92
69281;SHT31;56392;51.082;17.080;2023-07-09T23:25:38;20.69;63.21
69281;SHT31;56392;51.082;17.080;2023-07-09T23:31:02;20.62;63.11
69281;SHT31;56392;51.082;17.080;2023-07-09T23:36:25;20.53;63.55
69281;SHT31;56392;51.082;17.080;2023-07-09T23:41:52;20.33;64.29
69281;SHT31;56392;51.082;17.080;2023-07-09T23:47:17;20.21;64.98
69281;SHT31;56392;51.082;17.080;2023-07-09T23:52:41;20.04;65.26
69281;SHT31;56392;51.082;17.080;2023-07-09T23:58:13;19.98;65.79
